sensor_id;sensor_type;location;lat;lon;timestamp;pressure;altitude;pressure_sealevel;temperature;humidity
68489;BME280;55481;48.764;8.936;2024-01-27T00:02:25;98670;;;0.6;81
68489;BME280;55481;48.764;8.936;2024-01-27T00:05:03;98680;;;0.7;81
68489;BME280;55481;48.764;8.936;2024-01-27T00:07:34;98680;;;0.8;80.5
68489;BME280;55481;48.764;8.936;2024-01-27T00:10:04;98680;;;0.8;80.5
68489;BME280;55481;48.764;8.936;2024-01-27T00:17:30;98680;;;0.7;80.5
68489;BME280;55481;48.764;8.936;2024-01-27T00:20:01;98680;;;0.8;80
68489;BME280;55481;48.764;8.936;2024-01-27T00:22:32;98690;;;0.6;80.5
68489;BME280;55481;48.764;8.936;2024-01-27T00:25:03;98690;;;0.5;81
68489;BME280;55481;48.764;8.936;2024-01-27T00:27:33;98690;;;0.5;81
68489;BME280;55481;48.764;8.936;2024-01-27T00:30:10;98700;;;0.5;81
68489;BME280;55481;48.764;8.936;2024-01-27T00:32:41;98690;;;0.5;81
68489;BME280;55481;48.764;8.936;2024-01-27T00:35:12;98690;;;0.5;81
68489;BME280;55481;48.764;8.936;2024-01-27T00:37:43;98690;;;0.4;81
68489;BME280;55481;48.764;8.936;2024-01-27T00:40:15;98690;;;0.6;80.5
68489;BME280;55481;48.764;8.936;2024-01-27T00:42:45;98700;;;0.6;80.5
68489;BME280;55481;48.764;8.936;2024-01-27T00:45:23;98690;;;0.7;80.5
68489;BME280;55481;48.764;8.936;2024-01-27T00:53:08;98700;;;0.4;81
68489;BME280;55481;48.764;8.936;2024-01-27T00:55:25;98700;;;0.3;81
68489;BME280;55481;48.764;8.936;2024-01-27T01:00:25;98700;;;0.3;81
68489;BME280;55481;48.764;8.936;2024-01-27T01:02:49;98700;;;0.2;81
68489;BME280;55481;48.764;8.936;2024-01-27T01:07:52;98710;;;0.1;81.5
68489;BME280;55481;48.764;8.936;2024-01-27T01:10:22;98710;;;0.1;81.5
68489;BME280;55481;48.764;8.936;2024-01-27T01:12:53;98710;;;0.1;81.5
68489;BME280;55481;48.764;8.936;2024-01-27T01:15:31;98710;;;0.1;81.5
68489;BME280;55481;48.764;8.936;2024-01-27T01:18:02;98710;;;0.2;81.5
68489;BME280;55481;48.764;8.936;2024-01-27T01:20:31;98710;;;0.2;81
68489;BME280;55481;48.764;8.936;2024-01-27T01:27:57;98710;;;0.2;80.5
68489;BME280;55481;48.764;8.936;2024-01-27T01:30:28;98710;;;0.3;80
68489;BME280;55481;48.764;8.936;2024-01-27T01:33:09;98710;;;0.4;79.5
68489;BME280;55481;48.764;8.936;2024-01-27T01:35:36;98710;;;0.4;79.5
68489;BME280;55481;48.764;8.936;2024-01-27T01:38:07;98720;;;0.3;79.5
68489;BME280;55481;48.764;8.936;2024-01-27T01:40:36;98720;;;0;80.5
68489;BME280;55481;48.764;8.936;2024-01-27T01:45:37;98720;;;0;81
68489;BME280;55481;48.764;8.936;2024-01-27T01:50:32;98720;;;0.1;80
68489;BME280;55481;48.764;8.936;2024-01-27T01:53:03;98720;;;0.1;80
68489;BME280;55481;48.764;8.936;2024-01-27T01:55:34;98730;;;0;80.5
68489;BME280;55481;48.764;8.936;2024-01-27T01:58:05;98730;;;-0.1;81
68489;BME280;55481;48.764;8.936;2024-01-27T02:00:36;98730;;;-0.1;81
68489;BME280;55481;48.764;8.936;2024-01-27T02:03:11;98730;;;-0.1;80.5
68489;BME280;55481;48.764;8.936;2024-01-27T02:05:38;98740;;;-0.1;81
68489;BME280;55481;48.764;8.936;2024-01-27T02:10:39;98740;;;-0.1;81
68489;BME280;55481;48.764;8.936;2024-01-27T02:13:18;98740;;;-0.1;80.5
68489;BME280;55481;48.764;8.936;2024-01-27T02:15:41;98740;;;-0.1;80.5
68489;BME280;55481;48.764;8.936;2024-01-27T02:20:36;98740;;;-0.3;80.5
68489;BME280;55481;48.764;8.936;2024-01-27T02:23:07;98750;;;-0.4;81
68489;BME280;55481;48.764;8.936;2024-01-27T02:33:10;98780;;;-0.3;81
68489;BME280;55481;48.764;8.936;2024-01-27T02:35:40;98780;;;-0.3;81
68489;BME280;55481;48.764;8.936;2024-01-27T02:38:11;98780;;;-0.3;81
68489;BME280;55481;48.764;8.936;2024-01-27T02:40:42;98780;;;-0.2;80.5
68489;BME280;55481;48.764;8.936;2024-01-27T02:43:13;98790;;;-0.3;80
68489;BME280;55481;48.764;8.936;2024-01-27T02:45:43;98790;;;-0.4;80.5
68489;BME280;55481;48.764;8.936;2024-01-27T02:48:14;98790;;;-0.4;81
68489;BME280;55481;48.764;8.936;2024-01-27T02:50:45;98780;;;-0.4;81
68489;BME280;55481;48.764;8.936;2024-01-27T02:53:16;98780;;;-0.5;81
68489;BME280;55481;48.764;8.936;2024-01-27T03:00:54;98790;;;-0.5;80.5
68489;BME280;55481;48.764;8.936;2024-01-27T03:03:25;98790;;;-0.6;81
68489;BME280;55481;48.764;8.936;2024-01-27T03:05:56;98790;;;-0.5;80.5
68489;BME280;55481;48.764;8.936;2024-01-27T03:11:04;98780;;;-0.7;81
68489;BME280;55481;48.764;8.936;2024-01-27T03:13:35;98790;;;-0.7;81.5
68489;BME280;55481;48.764;8.936;2024-01-27T03:18:28;98790;;;-0.4;80.5
68489;BME280;55481;48.764;8.936;2024-01-27T03:20:59;98800;;;-0.6;80.5
68489;BME280;55481;48.764;8.936;2024-01-27T03:23:37;98800;;;-0.7;81
68489;BME280;55481;48.764;8.936;2024-01-27T03:28:24;98810;;;-0.6;81
68489;BME280;55481;48.764;8.936;2024-01-27T03:30:55;98810;;;-0.4;81
68489;BME280;55481;48.764;8.936;2024-01-27T03:33:26;98820;;;-0.3;80.5
68489;BME280;55481;48.764;8.936;2024-01-27T03:35:57;98820;;;-0.2;80.5
68489;BME280;55481;48.764;8.936;2024-01-27T03:38:27;98820;;;-0.1;80.5
68489;BME280;55481;48.764;8.936;2024-01-27T03:40:58;98820;;;-0.1;80.5
68489;BME280;55481;48.764;8.936;2024-01-27T03:43:29;98820;;;-0.1;80
68489;BME280;55481;48.764;8.936;2024-01-27T03:53:38;98830;;;-0.6;81
68489;BME280;55481;48.764;8.936;2024-01-27T03:56:11;98830;;;-0.6;81
68489;BME280;55481;48.764;8.936;2024-01-27T03:58:41;98840;;;-0.5;80.5
68489;BME280;55481;48.764;8.936;2024-01-27T04:01:11;98840;;;-0.4;80
68489;BME280;55481;48.764;8.936;2024-01-27T04:06:12;98830;;;-0.8;81
68489;BME280;55481;48.764;8.936;2024-01-27T04:08:50;98830;;;-0.9;81
68489;BME280;55481;48.764;8.936;2024-01-27T04:11:21;98830;;;-0.9;81
68489;BME280;55481;48.764;8.936;2024-01-27T04:24:01;98840;;;-0.8;81
68489;BME280;55481;48.764;8.936;2024-01-27T04:26:31;98840;;;-0.8;81
68489;BME280;55481;48.764;8.936;2024-01-27T04:31:19;98850;;;-0.8;80.5
68489;BME280;55481;48.764;8.936;2024-01-27T04:33:50;98840;;;-0.7;80
68489;BME280;55481;48.764;8.936;2024-01-27T04:36:25;98840;;;-0.9;80.5
68489;BME280;55481;48.764;8.936;2024-01-27T04:38:52;98840;;;-1;81
68489;BME280;55481;48.764;8.936;2024-01-27T04:41:16;98840;;;-1.1;81
68489;BME280;55481;48.764;8.936;2024-01-27T04:46:18;98850;;;-1;81
68489;BME280;55481;48.764;8.936;2024-01-27T04:48:49;98850;;;-0.9;80.5
68489;BME280;55481;48.764;8.936;2024-01-27T04:51:19;98850;;;-0.8;80
68489;BME280;55481;48.764;8.936;2024-01-27T04:56:27;98850;;;-1;80.5
68489;BME280;55481;48.764;8.936;2024-01-27T04:58:58;98850;;;-1;81
68489;BME280;55481;48.764;8.936;2024-01-27T05:01:29;98850;;;-0.9;80.5
68489;BME280;55481;48.764;8.936;2024-01-27T05:04:00;98850;;;-0.8;80
68489;BME280;55481;48.764;8.936;2024-01-27T05:06:31;98850;;;-0.8;79.5
68489;BME280;55481;48.764;8.936;2024-01-27T05:16:27;98850;;;-1.3;81
68489;BME280;55481;48.764;8.936;2024-01-27T05:18:58;98850;;;-1.3;81.5
68489;BME280;55481;48.764;8.936;2024-01-27T05:21:29;98860;;;-1.2;81.5
68489;BME280;55481;48.764;8.936;2024-01-27T05:23:59;98860;;;-1.2;81
68489;BME280;55481;48.764;8.936;2024-01-27T05:26:30;98850;;;-1.2;80.5
68489;BME280;55481;48.764;8.936;2024-01-27T05:29:08;98850;;;-1.2;80.5
68489;BME280;55481;48.764;8.936;2024-01-27T05:31:38;98850;;;-1.1;80.5
68489;BME280;55481;48.764;8.936;2024-01-27T05:36:33;98860;;;-1.3;80.5
68489;BME280;55481;48.764;8.936;2024-01-27T05:46:37;98850;;;-1.3;81
68489;BME280;55481;48.764;8.936;2024-01-27T05:49:07;98850;;;-1.2;81
68489;BME280;55481;48.764;8.936;2024-01-27T05:51:38;98850;;;-1.3;80.5
68489;BME280;55481;48.764;8.936;2024-01-27T05:54:09;98850;;;-1.3;80.5
68489;BME280;55481;48.764;8.936;2024-01-27T05:56:46;98850;;;-1.4;81
68489;BME280;55481;48.764;8.936;2024-01-27T05:59:17;98860;;;-1.5;81
68489;BME280;55481;48.764;8.936;2024-01-27T06:01:55;98860;;;-1.5;81
68489;BME280;55481;48.764;8.936;2024-01-27T06:06:43;98850;;;-1.6;81
68489;BME280;55481;48.764;8.936;2024-01-27T06:09:14;98860;;;-1.4;81
68489;BME280;55481;48.764;8.936;2024-01-27T06:11:44;98850;;;-1.3;80.5
68489;BME280;55481;48.764;8.936;2024-01-27T06:14:15;98850;;;-1.4;80.5
68489;BME280;55481;48.764;8.936;2024-01-27T06:16:46;98850;;;-1.5;81
68489;BME280;55481;48.764;8.936;2024-01-27T06:19:17;98860;;;-1.6;81
68489;BME280;55481;48.764;8.936;2024-01-27T06:21:47;98860;;;-1.6;81
68489;BME280;55481;48.764;8.936;2024-01-27T06:24:18;98860;;;-1.6;81
68489;BME280;55481;48.764;8.936;2024-01-27T06:26:49;98870;;;-1.6;81
68489;BME280;55481;48.764;8.936;2024-01-27T06:31:50;98870;;;-1.7;81.5
68489;BME280;55481;48.764;8.936;2024-01-27T06:34:28;98880;;;-1.7;81.5
68489;BME280;55481;48.764;8.936;2024-01-27T06:36:59;98880;;;-1.6;81
68489;BME280;55481;48.764;8.936;2024-01-27T06:44:30;98890;;;-1.5;80.5
68489;BME280;55481;48.764;8.936;2024-01-27T06:47:01;98880;;;-1.6;80.5
68489;BME280;55481;48.764;8.936;2024-01-27T06:49:32;98880;;;-1.7;81
68489;BME280;55481;48.764;8.936;2024-01-27T06:51:56;98890;;;-1.7;81
68489;BME280;55481;48.764;8.936;2024-01-27T06:59:29;98890;;;-1.9;81
68489;BME280;55481;48.764;8.936;2024-01-27T07:02:00;98890;;;-1.9;81
68489;BME280;55481;48.764;8.936;2024-01-27T07:04:31;98890;;;-1.7;81
68489;BME280;55481;48.764;8.936;2024-01-27T07:12:16;98890;;;-1.6;80.5
68489;BME280;55481;48.764;8.936;2024-01-27T07:17:15;98890;;;-1.4;80.5
68489;BME280;55481;48.764;8.936;2024-01-27T07:19:41;98890;;;-1.4;80.5
68489;BME280;55481;48.764;8.936;2024-01-27T07:22:12;98900;;;-1.3;80.5
68489;BME280;55481;48.764;8.936;2024-01-27T07:24:36;98890;;;-1.4;80.5
68489;BME280;55481;48.764;8.936;2024-01-27T07:27:07;98890;;;-1.4;80.5
68489;BME280;55481;48.764;8.936;2024-01-27T07:34:42;98890;;;-1.1;80
68489;BME280;55481;48.764;8.936;2024-01-27T07:37:10;98890;;;-1.1;80
68489;BME280;55481;48.764;8.936;2024-01-27T07:39:40;98890;;;-1.4;80.5
68489;BME280;55481;48.764;8.936;2024-01-27T07:42:11;98890;;;-1.4;80.5
68489;BME280;55481;48.764;8.936;2024-01-27T07:44:42;98890;;;-1.4;80.5
68489;BME280;55481;48.764;8.936;2024-01-27T07:49:50;98890;;;-1.3;81
68489;BME280;55481;48.764;8.936;2024-01-27T07:52:20;98890;;;-1.2;81
68489;BME280;55481;48.764;8.936;2024-01-27T07:54:51;98890;;;-1.1;80.5
68489;BME280;55481;48.764;8.936;2024-01-27T07:57:24;98890;;;-1.1;80.5
68489;BME280;55481;48.764;8.936;2024-01-27T08:00:00;98880;;;-1;81
68489;BME280;55481;48.764;8.936;2024-01-27T08:04:49;98890;;;-0.9;80.5
68489;BME280;55481;48.764;8.936;2024-01-27T08:07:19;98880;;;-1.1;80.5
68489;BME280;55481;48.764;8.936;2024-01-27T08:09:50;98880;;;-1.1;80.5
68489;BME280;55481;48.764;8.936;2024-01-27T08:12:21;98880;;;-1.2;81
68489;BME280;55481;48.764;8.936;2024-01-27T08:14:52;98880;;;-1.1;81
68489;BME280;55481;48.764;8.936;2024-01-27T08:17:22;98880;;;-1.1;80.5
68489;BME280;55481;48.764;8.936;2024-01-27T08:19:53;98890;;;-1.1;81
68489;BME280;55481;48.764;8.936;2024-01-27T08:22:24;98890;;;-1.1;81
68489;BME280;55481;48.764;8.936;2024-01-27T08:32:46;98860;;;-0.5;80.5
68489;BME280;55481;48.764;8.936;2024-01-27T08:35:23;98860;;;-0.3;80
68489;BME280;55481;48.764;8.936;2024-01-27T08:37:40;98870;;;0;79.5
68489;BME280;55481;48.764;8.936;2024-01-27T08:40:10;98860;;;0.1;79
68489;BME280;55481;48.764;8.936;2024-01-27T08:45:11;98870;;;0;79.5
68489;BME280;55481;48.764;8.936;2024-01-27T08:47:35;98870;;;0.2;79.5
68489;BME280;55481;48.764;8.936;2024-01-27T08:50:06;98870;;;0.3;79.5
68489;BME280;55481;48.764;8.936;2024-01-27T08:52:37;98860;;;0.4;79.5
68489;BME280;55481;48.764;8.936;2024-01-27T08:55:14;98870;;;0.4;79.5
68489;BME280;55481;48.764;8.936;2024-01-27T08:57:46;98870;;;0.4;79.5
68489;BME280;55481;48.764;8.936;2024-01-27T09:05:19;98850;;;0.7;79.5
68489;BME280;55481;48.764;8.936;2024-01-27T09:07:48;98860;;;0.9;79.5
68489;BME280;55481;48.764;8.936;2024-01-27T09:10:19;98860;;;1;79.5
68489;BME280;55481;48.764;8.936;2024-01-27T09:12:43;98860;;;1.3;79
68489;BME280;55481;48.764;8.936;2024-01-27T09:15:14;98860;;;1.3;79
68489;BME280;55481;48.764;8.936;2024-01-27T09:17:38;98870;;;1.3;79
68489;BME280;55481;48.764;8.936;2024-01-27T09:25:11;98870;;;1.8;78.5
68489;BME280;55481;48.764;8.936;2024-01-27T09:27:42;98870;;;2;78.5
68489;BME280;55481;48.764;8.936;2024-01-27T09:30:12;98870;;;2.2;78.5
68489;BME280;55481;48.764;8.936;2024-01-27T09:32:49;98880;;;2.3;78
68489;BME280;55481;48.764;8.936;2024-01-27T09:35:20;98880;;;2.5;78
68489;BME280;55481;48.764;8.936;2024-01-27T09:38:03;98880;;;2.6;78
68489;BME280;55481;48.764;8.936;2024-01-27T09:40:22;98880;;;2.8;78
68489;BME280;55481;48.764;8.936;2024-01-27T09:42:54;98880;;;2.9;78
68489;BME280;55481;48.764;8.936;2024-01-27T09:45:24;98880;;;2.9;78
68489;BME280;55481;48.764;8.936;2024-01-27T09:55:46;98890;;;3.2;78
68489;BME280;55481;48.764;8.936;2024-01-27T09:58:03;98890;;;3.2;78.5
68489;BME280;55481;48.764;8.936;2024-01-27T10:02:57;98880;;;3.3;78.5
68489;BME280;55481;48.764;8.936;2024-01-27T10:05:29;98880;;;3.5;78.5
68489;BME280;55481;48.764;8.936;2024-01-27T10:08:00;98880;;;3.5;78.5
68489;BME280;55481;48.764;8.936;2024-01-27T10:10:30;98880;;;3.6;78.5
68489;BME280;55481;48.764;8.936;2024-01-27T10:13:01;98880;;;3.8;78
68489;BME280;55481;48.764;8.936;2024-01-27T10:15:32;98880;;;3.9;78
68489;BME280;55481;48.764;8.936;2024-01-27T10:18:10;98880;;;4;78
68489;BME280;55481;48.764;8.936;2024-01-27T10:23:13;98890;;;4;78
68489;BME280;55481;48.764;8.936;2024-01-27T10:28:12;98880;;;4.2;78
68489;BME280;55481;48.764;8.936;2024-01-27T10:30:45;98880;;;4.3;78
68489;BME280;55481;48.764;8.936;2024-01-27T10:35:37;98870;;;4.6;78
68489;BME280;55481;48.764;8.936;2024-01-27T10:38:08;98850;;;4.8;77.5
68489;BME280;55481;48.764;8.936;2024-01-27T10:40:38;98850;;;4.8;78
68489;BME280;55481;48.764;8.936;2024-01-27T10:43:16;98840;;;4.9;78
68489;BME280;55481;48.764;8.936;2024-01-27T10:45:47;98840;;;5.1;77.5
68489;BME280;55481;48.764;8.936;2024-01-27T10:48:11;98830;;;5.2;77.5
68489;BME280;55481;48.764;8.936;2024-01-27T10:50:50;98830;;;5.2;77.5
68489;BME280;55481;48.764;8.936;2024-01-27T10:53:23;98830;;;5.4;77.5
68489;BME280;55481;48.764;8.936;2024-01-27T10:56:03;98830;;;5.6;77
68489;BME280;55481;48.764;8.936;2024-01-27T10:58:21;98820;;;5.7;77
68489;BME280;55481;48.764;8.936;2024-01-27T11:00:51;98810;;;5.9;77
68489;BME280;55481;48.764;8.936;2024-01-27T11:03:21;98820;;;5.5;77.5
68489;BME280;55481;48.764;8.936;2024-01-27T11:08:15;98820;;;5.3;78.5
68489;BME280;55481;48.764;8.936;2024-01-27T11:10:52;98810;;;5.5;78.5
68489;BME280;55481;48.764;8.936;2024-01-27T11:13:17;98810;;;5.8;78
68489;BME280;55481;48.764;8.936;2024-01-27T11:15:55;98810;;;6;77.5
68489;BME280;55481;48.764;8.936;2024-01-27T11:18:26;98820;;;6.2;77.5
68489;BME280;55481;48.764;8.936;2024-01-27T11:20:54;98820;;;6.2;77.5
68489;BME280;55481;48.764;8.936;2024-01-27T11:23:30;98820;;;6.2;78
68489;BME280;55481;48.764;8.936;2024-01-27T11:26:01;98810;;;6.1;78.5
68489;BME280;55481;48.764;8.936;2024-01-27T11:28:16;98800;;;6;79.5
68489;BME280;55481;48.764;8.936;2024-01-27T11:30:47;98800;;;6;79.5
68489;BME280;55481;48.764;8.936;2024-01-27T11:35:47;98810;;;5.8;80
68489;BME280;55481;48.764;8.936;2024-01-27T11:38:20;98810;;;6;80
68489;BME280;55481;48.764;8.936;2024-01-27T11:45:58;98810;;;5.9;80
68489;BME280;55481;48.764;8.936;2024-01-27T11:51:19;98830;;;5.7;79.5
68489;BME280;55481;48.764;8.936;2024-01-27T11:53:36;98820;;;5.6;80
68489;BME280;55481;48.764;8.936;2024-01-27T11:56:06;98810;;;5.5;80
68489;BME280;55481;48.764;8.936;2024-01-27T11:58:36;98810;;;5.5;80
68489;BME280;55481;48.764;8.936;2024-01-27T12:01:06;98800;;;5.6;80
68489;BME280;55481;48.764;8.936;2024-01-27T12:03:36;98800;;;5.7;79.5
68489;BME280;55481;48.764;8.936;2024-01-27T12:06:07;98790;;;5.7;79.5
68489;BME280;55481;48.764;8.936;2024-01-27T12:08:37;98790;;;5.9;79
68489;BME280;55481;48.764;8.936;2024-01-27T12:16:02;98780;;;6.2;78.5
68489;BME280;55481;48.764;8.936;2024-01-27T12:18:32;98770;;;6.2;78
68489;BME280;55481;48.764;8.936;2024-01-27T12:23:56;98770;;;6.1;78.5
68489;BME280;55481;48.764;8.936;2024-01-27T12:26:14;98760;;;6.2;78.5
68489;BME280;55481;48.764;8.936;2024-01-27T12:28:46;98760;;;6.2;78.5
68489;BME280;55481;48.764;8.936;2024-01-27T12:31:06;98750;;;6.2;78.5
68489;BME280;55481;48.764;8.936;2024-01-27T12:33:37;98750;;;6.3;78
68489;BME280;55481;48.764;8.936;2024-01-27T12:36:08;98750;;;6.3;78
68489;BME280;55481;48.764;8.936;2024-01-27T12:38:46;98740;;;6.2;78
68489;BME280;55481;48.764;8.936;2024-01-27T12:41:24;98740;;;6.2;78.5
68489;BME280;55481;48.764;8.936;2024-01-27T12:43:53;98730;;;6.4;78
68489;BME280;55481;48.764;8.936;2024-01-27T12:48:40;98730;;;6.5;78
68489;BME280;55481;48.764;8.936;2024-01-27T12:51:11;98740;;;6.5;78
68489;BME280;55481;48.764;8.936;2024-01-27T12:53:43;98750;;;6.6;78
68489;BME280;55481;48.764;8.936;2024-01-27T13:01:15;98740;;;6.6;78
68489;BME280;55481;48.764;8.936;2024-01-27T13:06:23;98740;;;6.6;78
68489;BME280;55481;48.764;8.936;2024-01-27T13:08:53;98740;;;6.7;78
68489;BME280;55481;48.764;8.936;2024-01-27T13:11:17;98740;;;6.7;77.5
68489;BME280;55481;48.764;8.936;2024-01-27T13:13:49;98740;;;6.8;77.5
68489;BME280;55481;48.764;8.936;2024-01-27T13:16:18;98740;;;6.8;77.5
68489;BME280;55481;48.764;8.936;2024-01-27T13:18:49;98730;;;6.9;77.5
68489;BME280;55481;48.764;8.936;2024-01-27T13:21:20;98730;;;7;77.5
68489;BME280;55481;48.764;8.936;2024-01-27T13:26:23;98730;;;7.1;77
68489;BME280;55481;48.764;8.936;2024-01-27T13:28:54;98730;;;6.9;77.5
68489;BME280;55481;48.764;8.936;2024-01-27T13:31:24;98720;;;6.9;77.5
68489;BME280;55481;48.764;8.936;2024-01-27T13:33:56;98720;;;6.9;77.5
68489;BME280;55481;48.764;8.936;2024-01-27T13:36:26;98720;;;7;77.5
68489;BME280;55481;48.764;8.936;2024-01-27T13:38:57;98720;;;7;77.5
68489;BME280;55481;48.764;8.936;2024-01-27T13:41:28;98720;;;7;77
68489;BME280;55481;48.764;8.936;2024-01-27T13:43:59;98720;;;7;77.5
68489;BME280;55481;48.764;8.936;2024-01-27T13:46:30;98710;;;7;77.5
68489;BME280;55481;48.764;8.936;2024-01-27T13:49:08;98710;;;6.9;77.5
68489;BME280;55481;48.764;8.936;2024-01-27T13:51:39;98720;;;6.9;77.5
68489;BME280;55481;48.764;8.936;2024-01-27T13:56:27;98720;;;6.8;77.5
68489;BME280;55481;48.764;8.936;2024-01-27T13:58:59;98720;;;6.8;77.5
68489;BME280;55481;48.764;8.936;2024-01-27T14:01:29;98720;;;6.7;77.5
68489;BME280;55481;48.764;8.936;2024-01-27T14:04:00;98720;;;6.7;77.5
68489;BME280;55481;48.764;8.936;2024-01-27T14:06:30;98710;;;6.7;77.5
68489;BME280;55481;48.764;8.936;2024-01-27T14:09:01;98700;;;6.8;77
68489;BME280;55481;48.764;8.936;2024-01-27T14:11:32;98700;;;6.9;76.5
68489;BME280;55481;48.764;8.936;2024-01-27T14:19:05;98690;;;6.9;76.5
68489;BME280;55481;48.764;8.936;2024-01-27T14:24:12;98690;;;7;76
68489;BME280;55481;48.764;8.936;2024-01-27T14:26:44;98680;;;6.9;76
68489;BME280;55481;48.764;8.936;2024-01-27T14:29:16;98690;;;6.8;76
68489;BME280;55481;48.764;8.936;2024-01-27T14:31:45;98690;;;6.8;76
68489;BME280;55481;48.764;8.936;2024-01-27T14:34:16;98690;;;6.8;76.5
68489;BME280;55481;48.764;8.936;2024-01-27T14:36:47;98690;;;6.8;76
68489;BME280;55481;48.764;8.936;2024-01-27T14:39:12;98690;;;6.7;76.5
68489;BME280;55481;48.764;8.936;2024-01-27T14:49:14;98680;;;6.6;76
68489;BME280;55481;48.764;8.936;2024-01-27T14:51:44;98670;;;6.5;76.5
68489;BME280;55481;48.764;8.936;2024-01-27T14:54:16;98670;;;6.5;76.5
68489;BME280;55481;48.764;8.936;2024-01-27T14:56:46;98670;;;6.5;76.5
68489;BME280;55481;48.764;8.936;2024-01-27T14:59:31;98670;;;6.5;76
68489;BME280;55481;48.764;8.936;2024-01-27T15:02:00;98670;;;6.5;76
68489;BME280;55481;48.764;8.936;2024-01-27T15:04:31;98670;;;6.4;76
68489;BME280;55481;48.764;8.936;2024-01-27T15:11:57;98670;;;6.2;76.5
68489;BME280;55481;48.764;8.936;2024-01-27T15:17:06;98660;;;6.3;76
68489;BME280;55481;48.764;8.936;2024-01-27T15:19:36;98670;;;6.2;76
68489;BME280;55481;48.764;8.936;2024-01-27T15:22:00;98670;;;6.1;76
68489;BME280;55481;48.764;8.936;2024-01-27T15:24:34;98670;;;6.2;76
68489;BME280;55481;48.764;8.936;2024-01-27T15:27:02;98660;;;6.2;76
68489;BME280;55481;48.764;8.936;2024-01-27T15:39:29;98670;;;5.8;76
68489;BME280;55481;48.764;8.936;2024-01-27T15:41:59;98670;;;5.7;76
68489;BME280;55481;48.764;8.936;2024-01-27T15:44:34;98670;;;5.6;76
68489;BME280;55481;48.764;8.936;2024-01-27T15:47:01;98670;;;5.5;76
68489;BME280;55481;48.764;8.936;2024-01-27T15:49:38;98660;;;5.3;76.5
68489;BME280;55481;48.764;8.936;2024-01-27T15:52:10;98670;;;5.2;76.5
68489;BME280;55481;48.764;8.936;2024-01-27T15:54:40;98670;;;5.1;76.5
68489;BME280;55481;48.764;8.936;2024-01-27T15:57:18;98680;;;5;77
68489;BME280;55481;48.764;8.936;2024-01-27T15:59:43;98680;;;4.9;76.5
68489;BME280;55481;48.764;8.936;2024-01-27T16:02:13;98680;;;4.9;76.5
68489;BME280;55481;48.764;8.936;2024-01-27T16:04:51;98680;;;4.8;76.5
68489;BME280;55481;48.764;8.936;2024-01-27T16:09:47;98690;;;4.6;76.5
68489;BME280;55481;48.764;8.936;2024-01-27T16:12:17;98690;;;4.5;76.5
68489;BME280;55481;48.764;8.936;2024-01-27T16:14:48;98690;;;4.4;77
68489;BME280;55481;48.764;8.936;2024-01-27T16:17:19;98700;;;4.1;77.5
68489;BME280;55481;48.764;8.936;2024-01-27T16:19:50;98710;;;3.9;78
68489;BME280;55481;48.764;8.936;2024-01-27T16:22:21;98700;;;3.8;78
68489;BME280;55481;48.764;8.936;2024-01-27T16:24:46;98700;;;3.8;77.5
68489;BME280;55481;48.764;8.936;2024-01-27T16:27:15;98700;;;3.7;77.5
68489;BME280;55481;48.764;8.936;2024-01-27T16:37:19;98700;;;3.3;77.5
68489;BME280;55481;48.764;8.936;2024-01-27T16:39:50;98710;;;3.3;77.5
68489;BME280;55481;48.764;8.936;2024-01-27T16:42:20;98720;;;3.4;77
68489;BME280;55481;48.764;8.936;2024-01-27T16:47:37;98720;;;3.2;77
68489;BME280;55481;48.764;8.936;2024-01-27T16:49:59;98720;;;3.1;77
68489;BME280;55481;48.764;8.936;2024-01-27T16:54:53;98730;;;2.7;78
68489;BME280;55481;48.764;8.936;2024-01-27T16:57:24;98730;;;2.7;77.5
68489;BME280;55481;48.764;8.936;2024-01-27T17:02:26;98740;;;2.7;77
68489;BME280;55481;48.764;8.936;2024-01-27T17:04:56;98740;;;2.5;77.5
68489;BME280;55481;48.764;8.936;2024-01-27T17:07:27;98730;;;2.3;78
68489;BME280;55481;48.764;8.936;2024-01-27T17:10:05;98730;;;2.3;77.5
68489;BME280;55481;48.764;8.936;2024-01-27T17:12:36;98730;;;2.3;77.5
68489;BME280;55481;48.764;8.936;2024-01-27T17:15:07;98720;;;2.2;77.5
68489;BME280;55481;48.764;8.936;2024-01-27T17:20:01;98730;;;2;77.5
68489;BME280;55481;48.764;8.936;2024-01-27T17:27:33;98730;;;1.8;77.5
68489;BME280;55481;48.764;8.936;2024-01-27T17:30:06;98730;;;1.9;77.5
68489;BME280;55481;48.764;8.936;2024-01-27T17:32:35;98730;;;1.9;77
68489;BME280;55481;48.764;8.936;2024-01-27T17:35:06;98730;;;1.8;77.5
68489;BME280;55481;48.764;8.936;2024-01-27T17:37:36;98730;;;1.7;78
68489;BME280;55481;48.764;8.936;2024-01-27T17:40:07;98730;;;1.9;77.5
68489;BME280;55481;48.764;8.936;2024-01-27T17:42:45;98730;;;1.7;77.5
68489;BME280;55481;48.764;8.936;2024-01-27T17:45:16;98730;;;1.8;77.5
68489;BME280;55481;48.764;8.936;2024-01-27T17:47:48;98730;;;1.7;77
68489;BME280;55481;48.764;8.936;2024-01-27T17:50:18;98740;;;1.5;77.5
68489;BME280;55481;48.764;8.936;2024-01-27T17:52:55;98740;;;1.5;77.5
68489;BME280;55481;48.764;8.936;2024-01-27T17:55:26;98730;;;1.5;77.5
68489;BME280;55481;48.764;8.936;2024-01-27T18:00:22;98740;;;1.5;77
68489;BME280;55481;48.764;8.936;2024-01-27T18:05:30;98750;;;1.3;77.5
68489;BME280;55481;48.764;8.936;2024-01-27T18:08:01;98750;;;1.3;77.5
68489;BME280;55481;48.764;8.936;2024-01-27T18:15:25;98760;;;1.2;77.5
68489;BME280;55481;48.764;8.936;2024-01-27T18:17:56;98760;;;1.3;76.5
68489;BME280;55481;48.764;8.936;2024-01-27T18:20:27;98750;;;1.3;76.5
68489;BME280;55481;48.764;8.936;2024-01-27T18:22:58;98750;;;1.2;76.5
68489;BME280;55481;48.764;8.936;2024-01-27T18:25:36;98750;;;1.1;76.5
68489;BME280;55481;48.764;8.936;2024-01-27T18:33:09;98750;;;0.6;78
68489;BME280;55481;48.764;8.936;2024-01-27T18:35:39;98750;;;0.7;77.5
68489;BME280;55481;48.764;8.936;2024-01-27T18:38:09;98750;;;0.7;77.5
68489;BME280;55481;48.764;8.936;2024-01-27T18:40:39;98750;;;0.7;77.5
68489;BME280;55481;48.764;8.936;2024-01-27T18:43:10;98750;;;0.8;77
68489;BME280;55481;48.764;8.936;2024-01-27T18:45:33;98750;;;0.7;77
68489;BME280;55481;48.764;8.936;2024-01-27T18:48:03;98750;;;0.8;76.5
68489;BME280;55481;48.764;8.936;2024-01-27T18:50:41;98760;;;0.5;77
68489;BME280;55481;48.764;8.936;2024-01-27T18:53:12;98750;;;0.4;77.5
68489;BME280;55481;48.764;8.936;2024-01-27T18:58:07;98760;;;0.4;77.5
68489;BME280;55481;48.764;8.936;2024-01-27T19:00:39;98760;;;0.4;77.5
68489;BME280;55481;48.764;8.936;2024-01-27T19:03:10;98760;;;0.5;77
68489;BME280;55481;48.764;8.936;2024-01-27T19:05:41;98760;;;0.5;76.5
68489;BME280;55481;48.764;8.936;2024-01-27T19:08:12;98750;;;0.5;76.5
68489;BME280;55481;48.764;8.936;2024-01-27T19:10:42;98750;;;0.5;76.5
68489;BME280;55481;48.764;8.936;2024-01-27T19:13:13;98750;;;0.4;76.5
68489;BME280;55481;48.764;8.936;2024-01-27T19:15:44;98760;;;0.4;76.5